sensor_id;sensor_type;location;lat;lon;timestamp;P1;durP1;ratioP1;P2;durP2;ratioP2
53545;SDS011;39432;51.902;10.844;2023-12-20T00:01:53;0.20;;;0.20;;
53545;SDS011;39432;51.902;10.844;2023-12-20T00:04:43;0.20;;;0.20;;
53545;SDS011;39432;51.902;10.844;2023-12-20T00:07:36;0.30;;;0.20;;
53545;SDS011;39432;51.902;10.844;2023-12-20T00:10:26;0.20;;;0.20;;
53545;SDS011;39432;51.902;10.844;2023-12-20T00:13:16;0.20;;;0.20;;
53545;SDS011;39432;51.902;10.844;2023-12-20T00:16:06;0.20;;;0.20;;
53545;SDS011;39432;51.902;10.844;2023-12-20T00:18:56;0.20;;;0.20;;
53545;SDS011;39432;51.902;10.844;2023-12-20T00:21:47;0.17;;;0.17;;
53545;SDS011;39432;51.902;10.844;2023-12-20T00:24:39;0.32;;;0.30;;
53545;SDS011;39432;51.902;10.844;2023-12-20T00:27:29;0.20;;;0.20;;
53545;SDS011;39432;51.902;10.844;2023-12-20T00:30:20;0.20;;;0.20;;
53545;SDS011;39432;51.902;10.844;2023-12-20T00:33:10;0.20;;;0.20;;
53545;SDS011;39432;51.902;10.844;2023-12-20T00:36:00;0.32;;;0.20;;
53545;SDS011;39432;51.902;10.844;2023-12-20T00:38:50;0.50;;;0.20;;
53545;SDS011;39432;51.902;10.844;2023-12-20T00:41:43;0.30;;;0.20;;
53545;SDS011;39432;51.902;10.844;2023-12-20T00:44:33;0.20;;;0.20;;
53545;SDS011;39432;51.902;10.844;2023-12-20T00:47:23;0.30;;;0.22;;
53545;SDS011;39432;51.902;10.844;2023-12-20T00:50:14;0.30;;;0.30;;
53545;SDS011;39432;51.902;10.844;2023-12-20T00:53:04;0.35;;;0.28;;
53545;SDS011;39432;51.902;10.844;2023-12-20T00:55:54;0.47;;;0.30;;
53545;SDS011;39432;51.902;10.844;2023-12-20T00:58:48;0.20;;;0.20;;
53545;SDS011;39432;51.902;10.844;2023-12-20T01:01:38;0.55;;;0.28;;
53545;SDS011;39432;51.902;10.844;2023-12-20T01:04:29;0.20;;;0.20;;
53545;SDS011;39432;51.902;10.844;2023-12-20T01:07:19;0.60;;;0.35;;
53545;SDS011;39432;51.902;10.844;2023-12-20T01:10:09;0.30;;;0.30;;
53545;SDS011;39432;51.902;10.844;2023-12-20T01:12:59;0.30;;;0.30;;
53545;SDS011;39432;51.902;10.844;2023-12-20T01:15:52;0.20;;;0.20;;
53545;SDS011;39432;51.902;10.844;2023-12-20T01:18:42;0.30;;;0.30;;
53545;SDS011;39432;51.902;10.844;2023-12-20T01:21:33;0.95;;;0.28;;
53545;SDS011;39432;51.902;10.844;2023-12-20T01:24:23;0.20;;;0.20;;
53545;SDS011;39432;51.902;10.844;2023-12-20T01:27:13;0.30;;;0.20;;
53545;SDS011;39432;51.902;10.844;2023-12-20T01:30:03;0.25;;;0.20;;
53545;SDS011;39432;51.902;10.844;2023-12-20T01:32:58;0.20;;;0.20;;
53545;SDS011;39432;51.902;10.844;2023-12-20T01:35:49;0.25;;;0.25;;
53545;SDS011;39432;51.902;10.844;2023-12-20T01:38:40;0.30;;;0.20;;
53545;SDS011;39432;51.902;10.844;2023-12-20T01:41:30;0.10;;;0.10;;
53545;SDS011;39432;51.902;10.844;2023-12-20T01:44:20;0.20;;;0.20;;
53545;SDS011;39432;51.902;10.844;2023-12-20T01:47:10;0.35;;;0.25;;
53545;SDS011;39432;51.902;10.844;2023-12-20T01:50:03;0.30;;;0.20;;
53545;SDS011;39432;51.902;10.844;2023-12-20T01:52:55;0.40;;;0.30;;
53545;SDS011;39432;51.902;10.844;2023-12-20T01:55:48;1.65;;;0.40;;
53545;SDS011;39432;51.902;10.844;2023-12-20T01:58:43;0.70;;;0.40;;
53545;SDS011;39432;51.902;10.844;2023-12-20T02:01:34;0.95;;;0.40;;
53545;SDS011;39432;51.902;10.844;2023-12-20T02:04:25;0.50;;;0.40;;
53545;SDS011;39432;51.902;10.844;2023-12-20T02:07:19;0.82;;;0.52;;
53545;SDS011;39432;51.902;10.844;2023-12-20T02:10:11;1.38;;;0.73;;
53545;SDS011;39432;51.902;10.844;2023-12-20T02:13:01;1.23;;;0.80;;
53545;SDS011;39432;51.902;10.844;2023-12-20T02:15:51;1.30;;;0.98;;
53545;SDS011;39432;51.902;10.844;2023-12-20T02:18:42;1.38;;;0.70;;
53545;SDS011;39432;51.902;10.844;2023-12-20T02:21:35;1.50;;;1.10;;
53545;SDS011;39432;51.902;10.844;2023-12-20T02:24:25;1.95;;;0.98;;
53545;SDS011;39432;51.902;10.844;2023-12-20T02:27:15;1.73;;;1.00;;
53545;SDS011;39432;51.902;10.844;2023-12-20T02:30:09;2.30;;;1.30;;
53545;SDS011;39432;51.902;10.844;2023-12-20T02:33:00;3.50;;;1.45;;
53545;SDS011;39432;51.902;10.844;2023-12-20T02:35:50;3.35;;;1.88;;
53545;SDS011;39432;51.902;10.844;2023-12-20T02:38:43;3.17;;;2.10;;
53545;SDS011;39432;51.902;10.844;2023-12-20T02:41:34;4.63;;;2.70;;
53545;SDS011;39432;51.902;10.844;2023-12-20T02:44:24;6.22;;;3.45;;
53545;SDS011;39432;51.902;10.844;2023-12-20T02:47:14;6.45;;;3.70;;
53545;SDS011;39432;51.902;10.844;2023-12-20T02:50:04;4.95;;;3.40;;
53545;SDS011;39432;51.902;10.844;2023-12-20T02:52:55;5.90;;;2.95;;
53545;SDS011;39432;51.902;10.844;2023-12-20T02:55:48;6.57;;;3.00;;
53545;SDS011;39432;51.902;10.844;2023-12-20T02:58:38;4.53;;;2.38;;
53545;SDS011;39432;51.902;10.844;2023-12-20T03:01:29;5.03;;;2.50;;
53545;SDS011;39432;51.902;10.844;2023-12-20T03:04:19;4.20;;;2.08;;
53545;SDS011;39432;51.902;10.844;2023-12-20T03:07:09;10.90;;;2.40;;
53545;SDS011;39432;51.902;10.844;2023-12-20T03:09:59;7.03;;;2.10;;
53545;SDS011;39432;51.902;10.844;2023-12-20T03:13:08;6.38;;;1.92;;
53545;SDS011;39432;51.902;10.844;2023-12-20T03:15:58;6.22;;;2.10;;
53545;SDS011;39432;51.902;10.844;2023-12-20T03:18:49;4.43;;;1.70;;
53545;SDS011;39432;51.902;10.844;2023-12-20T03:21:39;8.07;;;1.30;;
53545;SDS011;39432;51.902;10.844;2023-12-20T03:24:29;5.45;;;1.48;;
53545;SDS011;39432;51.902;10.844;2023-12-20T03:27:19;3.30;;;1.02;;
53545;SDS011;39432;51.902;10.844;2023-12-20T03:30:12;4.97;;;1.00;;
53545;SDS011;39432;51.902;10.844;2023-12-20T03:33:03;3.33;;;0.80;;
53545;SDS011;39432;51.902;10.844;2023-12-20T03:35:54;4.68;;;0.90;;
53545;SDS011;39432;51.902;10.844;2023-12-20T03:38:45;8.23;;;1.70;;
53545;SDS011;39432;51.902;10.844;2023-12-20T03:41:35;6.88;;;1.45;;
53545;SDS011;39432;51.902;10.844;2023-12-20T03:44:25;4.93;;;1.55;;
53545;SDS011;39432;51.902;10.844;2023-12-20T03:47:18;5.18;;;1.40;;
53545;SDS011;39432;51.902;10.844;2023-12-20T03:50:08;3.97;;;1.45;;
53545;SDS011;39432;51.902;10.844;2023-12-20T03:52:58;4.57;;;1.40;;
53545;SDS011;39432;51.902;10.844;2023-12-20T03:55:49;6.85;;;1.70;;
53545;SDS011;39432;51.902;10.844;2023-12-20T03:58:39;6.00;;;1.80;;
53545;SDS011;39432;51.902;10.844;2023-12-20T04:01:29;5.40;;;1.40;;
53545;SDS011;39432;51.902;10.844;2023-12-20T04:04:22;5.95;;;1.65;;
53545;SDS011;39432;51.902;10.844;2023-12-20T04:07:12;4.65;;;1.63;;
53545;SDS011;39432;51.902;10.844;2023-12-20T04:10:02;8.45;;;1.42;;
53545;SDS011;39432;51.902;10.844;2023-12-20T04:12:53;7.47;;;1.30;;
53545;SDS011;39432;51.902;10.844;2023-12-20T04:15:44;3.58;;;1.20;;
53545;SDS011;39432;51.902;10.844;2023-12-20T04:18:35;6.40;;;1.13;;
53545;SDS011;39432;51.902;10.844;2023-12-20T04:21:28;3.47;;;0.98;;
53545;SDS011;39432;51.902;10.844;2023-12-20T04:24:18;5.82;;;1.08;;
53545;SDS011;39432;51.902;10.844;2023-12-20T04:27:09;6.03;;;1.20;;
53545;SDS011;39432;51.902;10.844;2023-12-20T04:29:59;3.63;;;1.15;;
53545;SDS011;39432;51.902;10.844;2023-12-20T04:32:51;3.28;;;1.15;;
53545;SDS011;39432;51.902;10.844;2023-12-20T04:35:41;4.70;;;1.10;;
53545;SDS011;39432;51.902;10.844;2023-12-20T04:38:35;3.90;;;0.98;;
53545;SDS011;39432;51.902;10.844;2023-12-20T04:41:25;3.17;;;0.82;;
53545;SDS011;39432;51.902;10.844;2023-12-20T04:44:16;3.35;;;0.68;;
53545;SDS011;39432;51.902;10.844;2023-12-20T04:47:06;4.53;;;0.80;;
53545;SDS011;39432;51.902;10.844;2023-12-20T04:49:56;3.08;;;0.70;;
53545;SDS011;39432;51.902;10.844;2023-12-20T04:52:46;3.90;;;0.82;;
53545;SDS011;39432;51.902;10.844;2023-12-20T04:55:39;6.63;;;0.80;;
53545;SDS011;39432;51.902;10.844;2023-12-20T04:58:29;4.90;;;0.93;;
53545;SDS011;39432;51.902;10.844;2023-12-20T05:01:20;4.57;;;0.93;;
53545;SDS011;39432;51.902;10.844;2023-12-20T05:04:10;5.30;;;0.82;;
53545;SDS011;39432;51.902;10.844;2023-12-20T05:07:00;4.43;;;1.00;;
53545;SDS011;39432;51.902;10.844;2023-12-20T05:09:52;3.13;;;0.82;;
53545;SDS011;39432;51.902;10.844;2023-12-20T05:12:45;2.22;;;0.75;;
53545;SDS011;39432;51.902;10.844;2023-12-20T05:15:36;4.63;;;1.05;;
53545;SDS011;39432;51.902;10.844;2023-12-20T05:18:26;4.53;;;1.35;;
53545;SDS011;39432;51.902;10.844;2023-12-20T05:21:16;4.43;;;0.80;;
53545;SDS011;39432;51.902;10.844;2023-12-20T05:24:06;3.85;;;0.88;;
53545;SDS011;39432;51.902;10.844;2023-12-20T05:26:56;6.22;;;0.77;;
53545;SDS011;39432;51.902;10.844;2023-12-20T05:29:49;4.65;;;0.90;;
53545;SDS011;39432;51.902;10.844;2023-12-20T05:32:39;8.75;;;1.13;;
53545;SDS011;39432;51.902;10.844;2023-12-20T05:35:30;3.85;;;0.88;;
53545;SDS011;39432;51.902;10.844;2023-12-20T05:38:20;4.10;;;0.95;;
53545;SDS011;39432;51.902;10.844;2023-12-20T05:41:10;3.30;;;0.80;;
53545;SDS011;39432;51.902;10.844;2023-12-20T05:44:01;6.88;;;1.00;;
53545;SDS011;39432;51.902;10.844;2023-12-20T05:46:53;6.18;;;0.80;;
53545;SDS011;39432;51.902;10.844;2023-12-20T05:49:43;2.00;;;0.63;;
53545;SDS011;39432;51.902;10.844;2023-12-20T05:52:34;5.13;;;1.00;;
53545;SDS011;39432;51.902;10.844;2023-12-20T05:55:24;4.78;;;0.90;;
53545;SDS011;39432;51.902;10.844;2023-12-20T05:58:14;9.52;;;1.25;;
53545;SDS011;39432;51.902;10.844;2023-12-20T06:01:04;4.15;;;0.90;;
53545;SDS011;39432;51.902;10.844;2023-12-20T06:03:58;5.75;;;0.98;;
53545;SDS011;39432;51.902;10.844;2023-12-20T06:06:50;2.83;;;0.80;;
53545;SDS011;39432;51.902;10.844;2023-12-20T06:09:40;4.75;;;1.27;;
53545;SDS011;39432;51.902;10.844;2023-12-20T06:12:32;3.33;;;1.02;;
53545;SDS011;39432;51.902;10.844;2023-12-20T06:15:23;4.90;;;1.10;;
53545;SDS011;39432;51.902;10.844;2023-12-20T06:18:13;4.63;;;1.02;;
53545;SDS011;39432;51.902;10.844;2023-12-20T06:21:06;4.70;;;1.08;;
53545;SDS011;39432;51.902;10.844;2023-12-20T06:24:00;11.95;;;1.23;;
53545;SDS011;39432;51.902;10.844;2023-12-20T06:26:50;6.15;;;1.27;;
53545;SDS011;39432;51.902;10.844;2023-12-20T06:29:40;10.30;;;1.45;;
53545;SDS011;39432;51.902;10.844;2023-12-20T06:32:32;5.07;;;1.10;;
53545;SDS011;39432;51.902;10.844;2023-12-20T06:35:22;11.98;;;1.30;;
53545;SDS011;39432;51.902;10.844;2023-12-20T06:38:15;6.95;;;1.55;;
53545;SDS011;39432;51.902;10.844;2023-12-20T06:41:05;6.78;;;1.30;;
53545;SDS011;39432;51.902;10.844;2023-12-20T06:43:55;7.22;;;1.30;;
53545;SDS011;39432;51.902;10.844;2023-12-20T06:46:45;7.25;;;1.30;;
53545;SDS011;39432;51.902;10.844;2023-12-20T06:49:36;7.15;;;1.50;;
53545;SDS011;39432;51.902;10.844;2023-12-20T06:52:26;7.28;;;1.20;;
53545;SDS011;39432;51.902;10.844;2023-12-20T06:55:19;5.38;;;1.20;;
53545;SDS011;39432;51.902;10.844;2023-12-20T06:58:09;7.88;;;1.73;;
53545;SDS011;39432;51.902;10.844;2023-12-20T07:00:59;7.75;;;1.67;;
53545;SDS011;39432;51.902;10.844;2023-12-20T07:03:49;11.23;;;1.90;;
53545;SDS011;39432;51.902;10.844;2023-12-20T07:06:40;8.18;;;1.30;;
53545;SDS011;39432;51.902;10.844;2023-12-20T07:09:30;8.50;;;1.42;;
53545;SDS011;39432;51.902;10.844;2023-12-20T07:12:22;6.57;;;1.35;;
53545;SDS011;39432;51.902;10.844;2023-12-20T07:15:13;12.85;;;1.98;;
53545;SDS011;39432;51.902;10.844;2023-12-20T07:18:03;8.77;;;2.30;;
53545;SDS011;39432;51.902;10.844;2023-12-20T07:20:54;12.13;;;1.95;;
53545;SDS011;39432;51.902;10.844;2023-12-20T07:23:44;7.10;;;1.48;;
53545;SDS011;39432;51.902;10.844;2023-12-20T07:26:34;10.43;;;1.50;;
53545;SDS011;39432;51.902;10.844;2023-12-20T07:29:28;8.38;;;1.80;;
53545;SDS011;39432;51.902;10.844;2023-12-20T07:32:18;5.25;;;1.33;;
53545;SDS011;39432;51.902;10.844;2023-12-20T07:35:08;4.80;;;1.45;;
53545;SDS011;39432;51.902;10.844;2023-12-20T07:37:58;5.55;;;1.52;;
53545;SDS011;39432;51.902;10.844;2023-12-20T07:40:49;5.88;;;1.58;;
53545;SDS011;39432;51.902;10.844;2023-12-20T07:43:39;10.05;;;1.83;;
53545;SDS011;39432;51.902;10.844;2023-12-20T07:46:32;6.55;;;1.40;;
53545;SDS011;39432;51.902;10.844;2023-12-20T07:49:22;11.25;;;1.30;;
53545;SDS011;39432;51.902;10.844;2023-12-20T07:52:12;6.78;;;1.38;;
53545;SDS011;39432;51.902;10.844;2023-12-20T07:55:02;8.80;;;1.55;;
53545;SDS011;39432;51.902;10.844;2023-12-20T07:57:53;3.70;;;1.00;;
53545;SDS011;39432;51.902;10.844;2023-12-20T08:00:44;5.40;;;1.10;;
53545;SDS011;39432;51.902;10.844;2023-12-20T08:03:37;4.28;;;1.00;;
53545;SDS011;39432;51.902;10.844;2023-12-20T08:06:28;5.65;;;1.35;;
53545;SDS011;39432;51.902;10.844;2023-12-20T08:09:18;4.63;;;1.20;;
53545;SDS011;39432;51.902;10.844;2023-12-20T08:12:08;8.10;;;1.45;;
53545;SDS011;39432;51.902;10.844;2023-12-20T08:14:59;5.63;;;0.95;;
53545;SDS011;39432;51.902;10.844;2023-12-20T08:17:49;4.47;;;1.20;;
53545;SDS011;39432;51.902;10.844;2023-12-20T08:20:43;5.80;;;1.00;;
53545;SDS011;39432;51.902;10.844;2023-12-20T08:23:34;7.75;;;1.30;;
53545;SDS011;39432;51.902;10.844;2023-12-20T08:26:24;5.07;;;1.38;;
53545;SDS011;39432;51.902;10.844;2023-12-20T08:29:14;3.92;;;1.10;;
53545;SDS011;39432;51.902;10.844;2023-12-20T08:32:05;8.73;;;1.40;;
53545;SDS011;39432;51.902;10.844;2023-12-20T08:34:55;5.47;;;1.38;;
53545;SDS011;39432;51.902;10.844;2023-12-20T08:37:48;6.43;;;1.48;;
53545;SDS011;39432;51.902;10.844;2023-12-20T08:40:38;8.15;;;1.50;;
53545;SDS011;39432;51.902;10.844;2023-12-20T08:43:28;5.10;;;1.55;;
53545;SDS011;39432;51.902;10.844;2023-12-20T08:46:18;7.25;;;1.55;;
53545;SDS011;39432;51.902;10.844;2023-12-20T08:49:09;7.63;;;1.65;;
53545;SDS011;39432;51.902;10.844;2023-12-20T08:51:59;8.02;;;1.77;;
53545;SDS011;39432;51.902;10.844;2023-12-20T08:54:52;10.18;;;2.10;;
53545;SDS011;39432;51.902;10.844;2023-12-20T08:57:42;10.55;;;1.75;;
53545;SDS011;39432;51.902;10.844;2023-12-20T09:00:33;8.38;;;1.27;;
53545;SDS011;39432;51.902;10.844;2023-12-20T09:03:23;9.32;;;1.30;;
53545;SDS011;39432;51.902;10.844;2023-12-20T09:06:13;8.32;;;1.50;;
53545;SDS011;39432;51.902;10.844;2023-12-20T09:09:03;6.55;;;1.75;;
53545;SDS011;39432;51.902;10.844;2023-12-20T09:11:58;8.93;;;1.42;;
53545;SDS011;39432;51.902;10.844;2023-12-20T09:14:50;6.60;;;1.30;;
53545;SDS011;39432;51.902;10.844;2023-12-20T09:17:41;6.05;;;1.80;;
53545;SDS011;39432;51.902;10.844;2023-12-20T09:20:32;7.22;;;1.17;;
53545;SDS011;39432;51.902;10.844;2023-12-20T09:23:24;3.75;;;1.30;;
53545;SDS011;39432;51.902;10.844;2023-12-20T09:26:14;7.03;;;1.67;;
53545;SDS011;39432;51.902;10.844;2023-12-20T09:29:07;7.35;;;1.67;;
53545;SDS011;39432;51.902;10.844;2023-12-20T09:32:02;4.03;;;1.20;;
53545;SDS011;39432;51.902;10.844;2023-12-20T09:34:53;8.77;;;1.70;;
53545;SDS011;39432;51.902;10.844;2023-12-20T09:37:43;6.68;;;1.70;;
53545;SDS011;39432;51.902;10.844;2023-12-20T09:40:34;4.55;;;1.50;;
53545;SDS011;39432;51.902;10.844;2023-12-20T09:43:26;6.22;;;1.50;;
53545;SDS011;39432;51.902;10.844;2023-12-20T09:46:19;6.63;;;1.38;;
53545;SDS011;39432;51.902;10.844;2023-12-20T09:49:14;5.18;;;1.60;;
53545;SDS011;39432;51.902;10.844;2023-12-20T09:52:07;8.02;;;1.42;;
53545;SDS011;39432;51.902;10.844;2023-12-20T09:54:59;5.65;;;1.27;;
53545;SDS011;39432;51.902;10.844;2023-12-20T09:57:52;5.85;;;1.58;;
53545;SDS011;39432;51.902;10.844;2023-12-20T10:00:43;8.52;;;1.55;;
53545;SDS011;39432;51.902;10.844;2023-12-20T10:03:36;4.93;;;1.40;;
53545;SDS011;39432;51.902;10.844;2023-12-20T10:06:30;8.50;;;1.70;;
53545;SDS011;39432;51.902;10.844;2023-12-20T10:09:21;4.38;;;1.35;;
53545;SDS011;39432;51.902;10.844;2023-12-20T10:12:11;5.70;;;1.58;;
53545;SDS011;39432;51.902;10.844;2023-12-20T10:15:01;5.15;;;1.60;;
53545;SDS011;39432;51.902;10.844;2023-12-20T10:17:52;10.55;;;1.80;;
53545;SDS011;39432;51.902;10.844;2023-12-20T10:20:50;7.28;;;1.58;;
53545;SDS011;39432;51.902;10.844;2023-12-20T10:23:40;9.68;;;1.90;;
53545;SDS011;39432;51.902;10.844;2023-12-20T10:26:30;8.48;;;1.58;;
53545;SDS011;39432;51.902;10.844;2023-12-20T10:29:20;11.15;;;1.70;;
53545;SDS011;39432;51.902;10.844;2023-12-20T10:32:23;3.67;;;1.02;;
53545;SDS011;39432;51.902;10.844;2023-12-20T10:35:15;5.35;;;1.30;;
53545;SDS011;39432;51.902;10.844;2023-12-20T10:38:09;4.05;;;1.30;;
53545;SDS011;39432;51.902;10.844;2023-12-20T10:41:01;3.28;;;1.05;;
53545;SDS011;39432;51.902;10.844;2023-12-20T10:43:56;7.65;;;1.50;;
53545;SDS011;39432;51.902;10.844;2023-12-20T10:46:48;4.55;;;1.10;;
53545;SDS011;39432;51.902;10.844;2023-12-20T10:49:45;4.30;;;1.10;;
53545;SDS011;39432;51.902;10.844;2023-12-20T10:52:36;2.88;;;0.90;;
53545;SDS011;39432;51.902;10.844;2023-12-20T10:55:29;2.85;;;1.00;;
53545;SDS011;39432;51.902;10.844;2023-12-20T10:58:20;4.82;;;1.50;;
53545;SDS011;39432;51.902;10.844;2023-12-20T11:01:12;3.00;;;1.00;;
53545;SDS011;39432;51.902;10.844;2023-12-20T11:04:03;8.20;;;1.30;;
53545;SDS011;39432;51.902;10.844;2023-12-20T11:06:59;2.95;;;1.05;;
53545;SDS011;39432;51.902;10.844;2023-12-20T11:09:58;10.45;;;1.30;;
53545;SDS011;39432;51.902;10.844;2023-12-20T11:12:57;5.45;;;1.38;;
53545;SDS011;39432;51.902;10.844;2023-12-20T11:15:59;2.92;;;1.08;;
53545;SDS011;39432;51.902;10.844;2023-12-20T11:18:50;3.95;;;1.48;;
53545;SDS011;39432;51.902;10.844;2023-12-20T11:21:40;5.35;;;1.40;;
53545;SDS011;39432;51.902;10.844;2023-12-20T11:24:31;5.88;;;1.58;;
53545;SDS011;39432;51.902;10.844;2023-12-20T11:27:24;8.02;;;2.08;;
53545;SDS011;39432;51.902;10.844;2023-12-20T11:30:17;8.90;;;1.27;;
53545;SDS011;39432;51.902;10.844;2023-12-20T11:33:07;10.35;;;1.50;;
53545;SDS011;39432;51.902;10.844;2023-12-20T11:35:58;6.00;;;1.38;;
53545;SDS011;39432;51.902;10.844;2023-12-20T11:38:58;5.50;;;1.38;;
53545;SDS011;39432;51.902;10.844;2023-12-20T11:41:57;4.18;;;1.50;;
53545;SDS011;39432;51.902;10.844;2023-12-20T11:44:55;5.45;;;1.67;;
53545;SDS011;39432;51.902;10.844;2023-12-20T11:47:48;5.63;;;1.13;;
53545;SDS011;39432;51.902;10.844;2023-12-20T11:50:41;4.97;;;1.40;;
53545;SDS011;39432;51.902;10.844;2023-12-20T11:53:31;4.90;;;1.33;;
53545;SDS011;39432;51.902;10.844;2023-12-20T11:56:21;5.05;;;1.20;;
53545;SDS011;39432;51.902;10.844;2023-12-20T11:59:12;2.97;;;0.88;;
53545;SDS011;39432;51.902;10.844;2023-12-20T12:02:11;8.00;;;1.45;;
53545;SDS011;39432;51.902;10.844;2023-12-20T12:05:05;8.00;;;1.23;;
53545;SDS011;39432;51.902;10.844;2023-12-20T12:07:56;5.05;;;0.95;;
53545;SDS011;39432;51.902;10.844;2023-12-20T12:10:46;3.33;;;1.02;;
53545;SDS011;39432;51.902;10.844;2023-12-20T12:13:36;4.07;;;0.95;;
53545;SDS011;39432;51.902;10.844;2023-12-20T12:16:27;3.17;;;0.95;;
53545;SDS011;39432;51.902;10.844;2023-12-20T12:19:20;3.35;;;0.93;;
53545;SDS011;39432;51.902;10.844;2023-12-20T12:22:14;1.55;;;0.70;;
53545;SDS011;39432;51.902;10.844;2023-12-20T12:25:10;2.00;;;0.82;;
53545;SDS011;39432;51.902;10.844;2023-12-20T12:28:02;1.95;;;0.75;;
53545;SDS011;39432;51.902;10.844;2023-12-20T12:30:56;3.63;;;0.70;;
53545;SDS011;39432;51.902;10.844;2023-12-20T12:33:46;2.53;;;1.10;;
53545;SDS011;39432;51.902;10.844;2023-12-20T12:36:37;1.88;;;0.75;;
53545;SDS011;39432;51.902;10.844;2023-12-20T12:39:30;1.25;;;0.73;;
53545;SDS011;39432;51.902;10.844;2023-12-20T12:42:20;2.25;;;1.00;;
53545;SDS011;39432;51.902;10.844;2023-12-20T12:45:15;2.55;;;0.88;;
53545;SDS011;39432;51.902;10.844;2023-12-20T12:48:06;2.95;;;0.88;;
53545;SDS011;39432;51.902;10.844;2023-12-20T12:50:57;7.07;;;0.98;;
53545;SDS011;39432;51.902;10.844;2023-12-20T12:53:48;2.00;;;0.90;;
53545;SDS011;39432;51.902;10.844;2023-12-20T12:56:40;3.42;;;0.90;;
53545;SDS011;39432;51.902;10.844;2023-12-20T12:59:31;4.45;;;0.95;;
53545;SDS011;39432;51.902;10.844;2023-12-20T13:02:26;3.85;;;0.90;;
53545;SDS011;39432;51.902;10.844;2023-12-20T13:05:16;4.47;;;1.42;;
53545;SDS011;39432;51.902;10.844;2023-12-20T13:08:06;3.60;;;1.00;;
53545;SDS011;39432;51.902;10.844;2023-12-20T13:10:58;4.03;;;1.30;;
53545;SDS011;39432;51.902;10.844;2023-12-20T13:13:53;3.15;;;0.85;;
53545;SDS011;39432;51.902;10.844;2023-12-20T13:16:44;2.75;;;0.93;;
53545;SDS011;39432;51.902;10.844;2023-12-20T13:19:35;4.90;;;1.05;;
53545;SDS011;39432;51.902;10.844;2023-12-20T13:22:25;6.13;;;1.10;;
53545;SDS011;39432;51.902;10.844;2023-12-20T13:25:15;3.50;;;1.05;;
53545;SDS011;39432;51.902;10.844;2023-12-20T13:28:06;4.65;;;1.13;;
53545;SDS011;39432;51.902;10.844;2023-12-20T13:30:59;2.47;;;0.70;;
53545;SDS011;39432;51.902;10.844;2023-12-20T13:33:50;3.00;;;0.63;;
53545;SDS011;39432;51.902;10.844;2023-12-20T13:36:41;2.00;;;0.70;;
53545;SDS011;39432;51.902;10.844;2023-12-20T13:39:32;2.60;;;0.43;;
53545;SDS011;39432;51.902;10.844;2023-12-20T13:42:22;2.35;;;0.50;;
53545;SDS011;39432;51.902;10.844;2023-12-20T13:45:14;1.90;;;0.47;;
53545;SDS011;39432;51.902;10.844;2023-12-20T13:48:07;2.92;;;0.35;;
53545;SDS011;39432;51.902;10.844;2023-12-20T13:50:57;2.33;;;0.40;;
53545;SDS011;39432;51.902;10.844;2023-12-20T13:53:49;2.95;;;0.70;;
53545;SDS011;39432;51.902;10.844;2023-12-20T13:56:39;2.53;;;0.43;;
53545;SDS011;39432;51.902;10.844;2023-12-20T13:59:48;2.05;;;0.55;;
53545;SDS011;39432;51.902;10.844;2023-12-20T14:02:38;0.95;;;0.38;;
53545;SDS011;39432;51.902;10.844;2023-12-20T14:05:31;2.08;;;0.40;;
53545;SDS011;39432;51.902;10.844;2023-12-20T14:08:21;2.50;;;0.32;;
53545;SDS011;39432;51.902;10.844;2023-12-20T14:11:12;1.63;;;0.52;;
53545;SDS011;39432;51.902;10.844;2023-12-20T14:14:02;2.83;;;0.80;;
53545;SDS011;39432;51.902;10.844;2023-12-20T14:16:53;1.73;;;0.82;;
53545;SDS011;39432;51.902;10.844;2023-12-20T14:19:44;1.33;;;0.55;;
53545;SDS011;39432;51.902;10.844;2023-12-20T14:22:36;3.35;;;0.70;;
53545;SDS011;39432;51.902;10.844;2023-12-20T14:25:31;2.67;;;0.93;;
53545;SDS011;39432;51.902;10.844;2023-12-20T14:28:37;2.95;;;1.23;;
53545;SDS011;39432;51.902;10.844;2023-12-20T14:31:27;3.72;;;0.93;;
53545;SDS011;39432;51.902;10.844;2023-12-20T14:34:17;3.40;;;1.00;;
53545;SDS011;39432;51.902;10.844;2023-12-20T14:37:08;1.65;;;0.47;;
53545;SDS011;39432;51.902;10.844;2023-12-20T14:40:00;1.95;;;0.60;;
53545;SDS011;39432;51.902;10.844;2023-12-20T14:42:51;2.92;;;0.52;;
53545;SDS011;39432;51.902;10.844;2023-12-20T14:45:41;3.47;;;0.60;;
53545;SDS011;39432;51.902;10.844;2023-12-20T14:48:31;2.78;;;0.65;;
53545;SDS011;39432;51.902;10.844;2023-12-20T14:51:21;2.17;;;0.40;;
53545;SDS011;39432;51.902;10.844;2023-12-20T14:54:12;1.60;;;0.68;;
53545;SDS011;39432;51.902;10.844;2023-12-20T14:57:05;2.63;;;0.75;;
53545;SDS011;39432;51.902;10.844;2023-12-20T14:59:55;2.15;;;0.65;;
53545;SDS011;39432;51.902;10.844;2023-12-20T15:02:46;3.35;;;0.47;;
53545;SDS011;39432;51.902;10.844;2023-12-20T15:05:36;3.38;;;0.70;;
53545;SDS011;39432;51.902;10.844;2023-12-20T15:08:26;4.75;;;0.80;;
53545;SDS011;39432;51.902;10.844;2023-12-20T15:11:17;3.70;;;0.75;;
53545;SDS011;39432;51.902;10.844;2023-12-20T15:14:10;8.40;;;1.27;;
53545;SDS011;39432;51.902;10.844;2023-12-20T15:17:04;4.63;;;0.95;;
53545;SDS011;39432;51.902;10.844;2023-12-20T15:19:55;8.82;;;4.45;;
53545;SDS011;39432;51.902;10.844;2023-12-20T15:22:45;7.10;;;3.42;;
53545;SDS011;39432;51.902;10.844;2023-12-20T15:25:35;5.65;;;1.23;;
53545;SDS011;39432;51.902;10.844;2023-12-20T15:28:25;4.70;;;1.30;;
53545;SDS011;39432;51.902;10.844;2023-12-20T15:31:18;4.82;;;1.38;;
53545;SDS011;39432;51.902;10.844;2023-12-20T15:34:13;4.45;;;1.00;;
53545;SDS011;39432;51.902;10.844;2023-12-20T15:37:04;4.22;;;0.70;;
53545;SDS011;39432;51.902;10.844;2023-12-20T15:39:54;3.03;;;1.02;;
53545;SDS011;39432;51.902;10.844;2023-12-20T15:42:44;5.53;;;1.08;;
53545;SDS011;39432;51.902;10.844;2023-12-20T15:45:35;4.13;;;0.90;;
53545;SDS011;39432;51.902;10.844;2023-12-20T15:48:27;4.55;;;0.82;;
53545;SDS011;39432;51.902;10.844;2023-12-20T15:51:19;4.10;;;0.90;;
53545;SDS011;39432;51.902;10.844;2023-12-20T15:54:11;11.43;;;1.25;;
53545;SDS011;39432;51.902;10.844;2023-12-20T15:57:01;6.18;;;0.80;;
53545;SDS011;39432;51.902;10.844;2023-12-20T15:59:52;5.80;;;0.60;;
53545;SDS011;39432;51.902;10.844;2023-12-20T16:02:42;2.72;;;0.50;;
53545;SDS011;39432;51.902;10.844;2023-12-20T16:05:34;3.72;;;0.65;;
53545;SDS011;39432;51.902;10.844;2023-12-20T16:08:25;2.72;;;0.50;;
53545;SDS011;39432;51.902;10.844;2023-12-20T16:11:15;6.20;;;1.10;;
53545;SDS011;39432;51.902;10.844;2023-12-20T16:14:05;4.88;;;0.70;;
53545;SDS011;39432;51.902;10.844;2023-12-20T16:16:56;3.22;;;0.65;;
53545;SDS011;39432;51.902;10.844;2023-12-20T16:19:47;3.90;;;0.80;;
53545;SDS011;39432;51.902;10.844;2023-12-20T16:22:41;5.25;;;0.70;;
53545;SDS011;39432;51.902;10.844;2023-12-20T16:25:32;6.30;;;1.00;;
53545;SDS011;39432;51.902;10.844;2023-12-20T16:28:25;5.10;;;0.75;;
53545;SDS011;39432;51.902;10.844;2023-12-20T16:31:15;4.25;;;0.95;;
53545;SDS011;39432;51.902;10.844;2023-12-20T16:34:06;3.42;;;0.70;;
53545;SDS011;39432;51.902;10.844;2023-12-20T16:36:56;3.92;;;0.90;;
53545;SDS011;39432;51.902;10.844;2023-12-20T16:39:49;5.30;;;0.90;;
53545;SDS011;39432;51.902;10.844;2023-12-20T16:42:39;2.45;;;0.60;;
53545;SDS011;39432;51.902;10.844;2023-12-20T16:45:29;3.60;;;0.80;;
53545;SDS011;39432;51.902;10.844;2023-12-20T16:48:20;6.40;;;0.80;;
53545;SDS011;39432;51.902;10.844;2023-12-20T16:51:10;3.30;;;0.98;;
53545;SDS011;39432;51.902;10.844;2023-12-20T16:54:00;3.72;;;0.90;;
53545;SDS011;39432;51.902;10.844;2023-12-20T16:56:53;4.22;;;0.60;;